This is the latest recevied weather packets stored in our database for station/object F1PPH-2. If no packets are shown the sender has not sent any weather packets the latest 10 day(s).
| Time | Temp. | Humidity | Pressure | Rain* | Wind** | Luminosity | Snow |
|---|---|---|---|---|---|---|---|
| 1788150579 | 67° F | 54% | 755.7 mmHg | - | - | - | - |
| 1788146979 | 68° F | 54% | 755.8 mmHg | - | - | - | - |
| 1788143379 | 67° F | 53% | 755.5 mmHg | - | - | - | - |
| 1788139779 | 67° F | 53% | 755.5 mmHg | - | - | - | - |
| 1788136179 | 68° F | 52% | 755.4 mmHg | - | - | - | - |
| 1788132577 | 69° F | 52% | 755.2 mmHg | - | - | - | - |
| 1788128977 | 69° F | 51% | 755.2 mmHg | - | - | - | - |
| 1788125376 | 69° F | 50% | 755.1 mmHg | - | - | - | - |
| 1788121776 | 70° F | 50% | 754.9 mmHg | - | - | - | - |
| 1788114577 | 76° F | 48% | 754.1 mmHg | - | - | - | - |
| 1788110975 | 87° F | 45% | 753.9 mmHg | - | - | - | - |
| 1788107375 | 83° F | 45% | 754 mmHg | - | - | - | - |
| 1788103775 | 93° F | 42% | 753.7 mmHg | - | - | - | - |
| 1788100175 | 91° F | 43% | 754.1 mmHg | - | - | - | - |
| 1788096574 | 97° F | 42% | 754.4 mmHg | - | - | - | - |
| 1788092974 | 92° F | 44% | 754.9 mmHg | - | - | - | - |
| 1788085774 | 109° F | 36% | 754.4 mmHg | - | - | - | - |
| 1788082173 | 93° F | 47% | 755.5 mmHg | - | - | - | - |
| 1788078573 | 95° F | 44% | 755.8 mmHg | - | - | - | - |
| 1788074972 | 87° F | 48% | 755.8 mmHg | - | - | - | - |
| 1788067772 | 68° F | 59% | 755.3 mmHg | - | - | - | - |
| 1788064175 | 67° F | 59% | 755.2 mmHg | - | - | - | - |
| 1788060571 | 68° F | 59% | 755.2 mmHg | - | - | - | - |
| 1788056971 | 68° F | 58% | 755.4 mmHg | - | - | - | - |
| 1788053371 | 68° F | 58% | 755.3 mmHg | - | - | - | - |
* Rain since midnight (hover to see other rain measurements)
** Current wind speed in m/s (hover to see current wind gust speed)